Time;durP1;ratioP1;P1;durP2;ratioP2;P2;SDS_P1;SDS_P2;PMS_P1;PMS_P2;Temp;Humidity;BMP_temperature;BMP_pressure;BME280_temperature;BME280_humidity;BME280_pressure;Samples;Min_cycle;Max_cycle;Signal;HPM_P1;HPM_P2
2022/12/13 15:21:02;;;;;;;;;;;;;;;;;;7309590;19;416058;-60
2022/12/13 15:34:20;;;;;;;;;;;;;;;;;;7096872;19;344247;-57
2022/12/13 15:38:13;;;;;;;14.43;8.13;;;;;;;;;;7113243;19;1812833;-50
2022/12/13 15:57:34;;;;;;;31.65;17.10;;;;;;;;;;7182207;19;20259;-74
2022/12/13 16:00:22;;;;;;;37.92;18.42;;;;;;;;;;7347088;19;20067;-75
2022/12/13 16:03:18;;;;;;;36.47;17.58;;;;;;;;;;7225167;19;2004625;-76
2022/12/13 16:06:08;;;;;;;;;;;;;;;;;;;;;
2022/12/13 16:08:48;;;;;;;35.53;16.58;;;;;;;;;;7271307;19;210429;-76
2022/12/13 16:11:33;;;;;;;35.97;15.80;;;;;;;;;;7324653;19;20014;-75
2022/12/13 16:14:42;;;;;;;36.63;15.50;;;;;;;;;;7342956;19;20022;-76
2022/12/13 16:17:34;;;;;;;35.00;15.35;;;;;;;;;;6976520;19;2004103;-77
2022/12/13 16:20:14;;;;;;;39.90;18.20;;;;;;;;;;7399146;19;20377;-76
2022/12/13 16:22:44;;;;;;;35.15;14.50;;;;;;;;;;7383300;19;20007;-77
2022/12/13 16:25:15;;;;;;;33.15;16.00;;;;;;;;;;7404929;19;20420;-77
2022/12/13 16:27:46;;;;;;;38.17;15.10;;;;;;;;;;7410867;19;20468;-76
2022/12/13 16:30:26;;;;;;;34.25;16.02;;;;;;;;;;7403344;19;20375;-76
2022/12/13 16:32:56;;;;;;;39.00;17.48;;;;;;;;;;7355464;19;20921;-76
2022/12/13 16:35:46;;;;;;;38.30;15.00;;;;;;;;;;7301028;19;2004083;-75
2022/12/13 16:38:17;;;;;;;29.58;13.82;;;;;;;;;;7401667;19;20010;-75
2022/12/13 16:40:57;;;;;;;33.92;16.95;;;;;;;;;;7402973;19;20062;-76
2022/12/13 16:43:28;;;;;;;31.30;14.52;;;;;;;;;;7399509;19;20006;-76
2022/12/13 16:46:06;;;;;;;32.90;13.95;;;;;;;;;;7404642;19;20036;-76
2022/12/13 16:48:56;;;;;;;30.83;16.13;;;;;;;;;;7300803;19;2005018;-75
2022/12/13 16:51:27;;;;;;;29.23;15.95;;;;;;;;;;7390544;19;20014;-76
2022/12/13 16:54:27;;;;;;;35.50;15.63;;;;;;;;;;7310993;19;20026;-77
2022/12/13 16:56:57;;;;;;;25.15;11.77;;;;;;;;;;7298537;19;2004001;-76
2022/12/13 16:59:28;;;;;;;33.75;16.95;;;;;;;;;;7397621;19;20010;-76
2022/12/13 17:02:00;;;;;;;30.15;15.43;;;;;;;;;;7402632;19;20524;-77
2022/12/13 17:04:30;;;;;;;37.38;17.88;;;;;;;;;;7399887;19;20106;-76
2022/12/13 17:07:00;;;;;;;36.80;17.13;;;;;;;;;;7396723;19;20173;-75
2022/12/13 17:09:30;;;;;;;30.92;16.27;;;;;;;;;;7371467;19;20555;-80
2022/12/13 17:12:06;;;;;;;32.40;15.32;;;;;;;;;;7372840;19;20041;-76
2022/12/13 17:14:37;;;;;;;34.85;17.20;;;;;;;;;;7377212;19;20015;-76
2022/12/13 17:17:10;;;;;;;41.85;18.02;;;;;;;;;;7373335;19;20014;-76
2022/12/13 17:19:46;;;;;;;36.13;19.27;;;;;;;;;;7379352;19;20078;-76
2022/12/13 17:22:16;;;;;;;43.45;17.13;;;;;;;;;;7369764;19;20027;-76
2022/12/13 17:24:46;;;;;;;34.55;17.52;;;;;;;;;;7374996;19;20359;-76
2022/12/13 17:27:17;;;;;;;41.88;16.60;;;;;;;;;;7367586;19;20014;-76
2022/12/13 17:29:48;;;;;;;29.48;14.60;;;;;;;;;;7369018;19;20088;-76
2022/12/13 17:32:21;;;;;;;42.47;18.70;;;;;;;;;;7368447;19;20491;-76
2022/12/13 17:34:52;;;;;;;36.08;15.18;;;;;;;;;;7370049;19;20346;-76
2022/12/13 17:37:21;;;;;;;33.97;16.98;;;;;;;;;;7363748;19;20006;-77
2022/12/13 17:39:51;;;;;;;39.42;15.93;;;;;;;;;;7379392;19;20023;-76
2022/12/13 17:42:21;;;;;;;33.75;17.15;;;;;;;;;;7370873;19;20018;-78
2022/12/13 17:44:51;;;;;;;41.03;17.58;;;;;;;;;;7375852;19;20005;-77
2022/12/13 17:47:23;;;;;;;34.10;18.67;;;;;;;;;;7372962;19;20484;-77
2022/12/13 17:49:53;;;;;;;43.17;18.77;;;;;;;;;;7372132;19;20030;-75
2022/12/13 17:52:23;;;;;;;42.83;16.10;;;;;;;;;;7369545;19;21727;-76
2022/12/13 17:54:53;;;;;;;32.30;16.30;;;;;;;;;;7371751;19;20014;-76
2022/12/13 17:57:23;;;;;;;38.17;18.58;;;;;;;;;;7369860;19;20435;-76
2022/12/13 17:59:53;;;;;;;45.58;18.42;;;;;;;;;;7375121;19;20018;-75
2022/12/13 18:02:26;;;;;;;31.90;15.60;;;;;;;;;;7370169;19;25127;-75
2022/12/13 18:04:56;;;;;;;39.03;18.90;;;;;;;;;;7349694;19;20701;-75
2022/12/13 18:07:27;;;;;;;32.22;16.00;;;;;;;;;;7371198;19;20090;-75
2022/12/13 18:10:02;;;;;;;45.05;20.38;;;;;;;;;;7356056;19;20020;-75
2022/12/13 18:12:34;;;;;;;47.58;17.95;;;;;;;;;;7367922;19;20011;-74
2022/12/13 18:15:04;;;;;;;41.10;18.48;;;;;;;;;;7370201;19;20381;-78
2022/12/13 18:17:36;;;;;;;40.47;18.77;;;;;;;;;;7373433;19;20023;-78
2022/12/13 18:20:27;;;;;;;38.92;17.45;;;;;;;;;;7366647;19;20013;-76
2022/12/13 18:22:59;;;;;;;29.38;13.73;;;;;;;;;;7373103;19;20026;-77
2022/12/13 18:25:31;;;;;;;44.17;17.93;;;;;;;;;;7365929;19;20439;-76
2022/12/13 18:28:01;;;;;;;40.88;18.50;;;;;;;;;;7370805;19;20267;-76
2022/12/13 18:30:33;;;;;;;49.75;19.20;;;;;;;;;;7361934;19;20015;-76
2022/12/13 18:33:06;;;;;;;31.48;17.23;;;;;;;;;;7326833;19;20139;-76
2022/12/13 18:35:37;;;;;;;40.30;18.02;;;;;;;;;;7368490;19;20011;-79
2022/12/13 18:38:08;;;;;;;35.55;15.50;;;;;;;;;;7358923;19;20006;-78
2022/12/13 18:40:54;;;;;;;37.03;17.38;;;;;;;;;;7344686;19;20035;-76
2022/12/13 18:43:25;;;;;;;36.63;19.02;;;;;;;;;;7362739;19;20038;-77
2022/12/13 18:45:57;;;;;;;31.52;16.55;;;;;;;;;;7370512;19;20015;-77
2022/12/13 18:48:30;;;;;;;41.60;17.30;;;;;;;;;;7363620;19;20042;-78
2022/12/13 18:51:00;;;;;;;39.58;18.10;;;;;;;;;;7366156;19;20029;-78
2022/12/13 18:53:31;;;;;;;49.47;19.67;;;;;;;;;;7357677;19;20007;-77
2022/12/13 18:56:03;;;;;;;37.42;17.25;;;;;;;;;;7361816;19;20007;-76
2022/12/13 18:58:34;;;;;;;42.53;18.02;;;;;;;;;;7362779;19;20014;-77
2022/12/13 19:01:04;;;;;;;30.92;16.65;;;;;;;;;;7368150;19;20007;-76
2022/12/13 19:03:38;;;;;;;44.17;17.15;;;;;;;;;;7364835;19;20127;-78
2022/12/13 19:06:09;;;;;;;33.25;15.13;;;;;;;;;;7368357;19;20419;-78
2022/12/13 19:08:39;;;;;;;43.20;19.10;;;;;;;;;;7365299;19;20078;-77
2022/12/13 19:11:09;;;;;;;45.08;19.00;;;;;;;;;;7370891;19;20467;-76
2022/12/13 19:13:39;;;;;;;45.28;21.38;;;;;;;;;;7360782;19;20018;-76
2022/12/13 19:16:13;;;;;;;53.85;21.85;;;;;;;;;;7371594;19;20027;-77
2022/12/13 19:18:47;;;;;;;39.72;17.35;;;;;;;;;;7364701;19;20105;-76
2022/12/13 19:21:20;;;;;;;45.38;19.23;;;;;;;;;;7364366;19;20067;-76
2022/12/13 19:23:59;;;;;;;39.97;18.65;;;;;;;;;;7343107;19;20011;-77
2022/12/13 19:26:30;;;;;;;44.35;18.60;;;;;;;;;;7352646;19;20467;-77
2022/12/13 19:29:02;;;;;;;51.65;23.80;;;;;;;;;;7373319;19;20063;-77
2022/12/13 19:31:32;;;;;;;58.97;21.52;;;;;;;;;;7373564;19;20044;-77
2022/12/13 19:34:05;;;;;;;55.88;23.13;;;;;;;;;;7373467;19;20021;-76
2022/12/13 19:36:35;;;;;;;52.72;21.92;;;;;;;;;;7365142;19;20021;-77
2022/12/13 19:39:05;;;;;;;41.67;18.70;;;;;;;;;;7371144;19;20019;-77
2022/12/13 19:41:35;;;;;;;42.90;17.95;;;;;;;;;;7361417;19;20424;-75
2022/12/13 19:44:07;;;;;;;38.80;17.13;;;;;;;;;;7362239;19;20029;-77
2022/12/13 19:46:38;;;;;;;34.25;14.93;;;;;;;;;;7361542;19;20066;-77
2022/12/13 19:49:11;;;;;;;39.72;16.92;;;;;;;;;;7362957;19;20393;-76
2022/12/13 19:51:41;;;;;;;;;;;;;;;;;;7366057;19;20469;-76
2022/12/13 19:54:11;;;;;;;31.52;14.68;;;;;;;;;;7260566;19;20313;-76
2022/12/13 19:56:41;;;;;;;41.45;15.32;;;;;;;;;;7344436;19;20011;-79
2022/12/13 19:59:12;;;;;;;49.50;20.45;;;;;;;;;;7353379;19;20014;-78
2022/12/13 20:01:42;;;;;;;34.72;16.95;;;;;;;;;;7360885;19;20031;-78
2022/12/13 20:04:15;;;;;;;49.28;18.40;;;;;;;;;;7360975;19;20733;-75
2022/12/13 20:06:45;;;;;;;49.17;19.00;;;;;;;;;;7364455;19;20074;-76
2022/12/13 20:09:15;;;;;;;52.83;22.92;;;;;;;;;;7362502;19;20050;-76
2022/12/13 20:11:44;;;;;;;40.17;18.10;;;;;;;;;;7368092;19;20559;-76
2022/12/13 20:14:16;;;;;;;31.73;14.90;;;;;;;;;;7360349;19;20086;-76
2022/12/13 20:16:46;;;;;;;38.03;17.00;;;;;;;;;;7365610;19;20235;-76
2022/12/13 20:19:19;;;;;;;29.85;13.68;;;;;;;;;;7360565;19;20145;-76
2022/12/13 20:21:49;;;;;;;27.35;13.55;;;;;;;;;;7365616;19;20010;-77
2022/12/13 20:24:25;;;;;;;36.08;15.43;;;;;;;;;;7361629;19;20078;-77
2022/12/13 20:26:55;;;;;;;37.60;14.45;;;;;;;;;;7366876;19;20003;-76
2022/12/13 20:29:25;;;;;;;36.90;15.45;;;;;;;;;;7361886;19;20383;-76
2022/12/13 20:31:54;;;;;;;26.85;13.93;;;;;;;;;;7364937;19;20017;-76
2022/12/13 20:34:27;;;;;;;29.40;14.10;;;;;;;;;;7361792;19;20011;-76
2022/12/13 20:36:57;;;;;;;32.15;13.80;;;;;;;;;;7365655;19;20014;-77
2022/12/13 20:39:27;;;;;;;27.90;13.45;;;;;;;;;;7346114;19;20010;-76
2022/12/13 20:41:56;;;;;;;33.28;14.93;;;;;;;;;;7365107;19;20044;-76
2022/12/13 20:44:26;;;;;;;29.10;15.10;;;;;;;;;;7348933;19;20021;-76
2022/12/13 20:46:56;;;;;;;31.50;14.98;;;;;;;;;;7367152;19;20013;-77
2022/12/13 20:49:29;;;;;;;40.67;15.15;;;;;;;;;;7365208;19;20011;-76
2022/12/13 20:51:59;;;;;;;30.50;15.52;;;;;;;;;;7366548;19;20099;-77
2022/12/13 20:54:29;;;;;;;32.92;17.17;;;;;;;;;;7345278;19;20097;-77
2022/12/13 20:56:59;;;;;;;25.40;12.25;;;;;;;;;;7371426;19;20054;-77
2022/12/13 20:59:30;;;;;;;38.95;15.13;;;;;;;;;;7373717;19;20011;-77
2022/12/13 21:02:00;;;;;;;33.47;15.77;;;;;;;;;;7351757;19;20574;-77
2022/12/13 21:04:33;;;;;;;34.35;16.60;;;;;;;;;;7374545;19;20390;-77
2022/12/13 21:07:04;;;;;;;24.70;13.77;;;;;;;;;;7378651;19;20025;-76
2022/12/13 21:09:33;;;;;;;31.90;13.68;;;;;;;;;;7375770;19;20345;-77
2022/12/13 21:12:03;;;;;;;31.25;14.65;;;;;;;;;;7379078;19;20017;-77
2022/12/13 21:14:35;;;;;;;35.55;15.88;;;;;;;;;;7376648;19;20007;-78
2022/12/13 21:17:08;;;;;;;39.40;13.48;;;;;;;;;;7371288;19;20107;-78
2022/12/13 21:19:42;;;;;;;32.40;13.40;;;;;;;;;;7375591;19;20011;-78
2022/12/13 21:22:17;;;;;;;31.33;14.30;;;;;;;;;;7349938;19;20009;-77
2022/12/13 21:24:47;;;;;;;29.60;11.00;;;;;;;;;;7380104;19;20078;-77
2022/12/13 21:27:17;;;;;;;33.10;13.25;;;;;;;;;;7373493;19;20049;-77
2022/12/13 21:29:47;;;;;;;31.75;13.82;;;;;;;;;;7378786;19;20017;-77
2022/12/13 21:32:16;;;;;;;28.58;13.85;;;;;;;;;;7377034;19;20023;-77
2022/12/13 21:34:50;;;;;;;27.67;14.00;;;;;;;;;;7357284;19;20042;-77
2022/12/13 21:37:23;;;;;;;23.48;11.93;;;;;;;;;;7329758;19;20007;-76
2022/12/13 21:39:53;;;;;;;31.73;11.63;;;;;;;;;;7378083;19;20054;-77
2022/12/13 21:42:23;;;;;;;32.47;13.32;;;;;;;;;;7366253;19;20023;-76
2022/12/13 21:44:54;;;;;;;31.95;15.00;;;;;;;;;;7368032;19;20019;-76
2022/12/13 21:47:32;;;;;;;26.63;12.15;;;;;;;;;;7342558;19;20085;-76
2022/12/13 21:50:10;;;;;;;27.92;13.55;;;;;;;;;;7368682;19;20079;-76
2022/12/13 21:52:40;;;;;;;28.23;13.82;;;;;;;;;;7349840;19;20019;-77
2022/12/13 21:55:18;;;;;;;38.25;16.52;;;;;;;;;;7374844;19;20038;-77
2022/12/13 22:00:51;;;;;;;30.27;15.77;;;;;;;;;;7374188;19;20023;-77
2022/12/13 22:03:21;;;;;;;69.10;16.13;;;;;;;;;;7349357;19;20082;-77
2022/12/13 22:05:55;;;;;;;27.02;13.93;;;;;;;;;;7371333;19;20006;-76
2022/12/13 22:08:28;;;;;;;24.58;12.85;;;;;;;;;;7366494;19;20013;-77
2022/12/13 22:13:46;;;;;;;29.48;12.50;;;;;;;;;;7369999;19;19921;-76
2022/12/13 22:16:18;;;;;;;27.42;14.32;;;;;;;;;;7316822;19;20057;-76
2022/12/13 22:18:50;;;;;;;23.10;12.00;;;;;;;;;;7345726;19;20021;-76
2022/12/13 22:21:25;;;;;;;29.50;15.77;;;;;;;;;;7310569;19;20081;-76
2022/12/13 22:23:55;;;;;;;29.55;15.73;;;;;;;;;;7368302;19;20078;-78
2022/12/13 22:26:26;;;;;;;27.75;12.52;;;;;;;;;;7374588;19;20070;-77
2022/12/13 22:28:56;;;;;;;27.17;13.23;;;;;;;;;;7359607;19;20047;-76
2022/12/13 22:31:28;;;;;;;30.02;13.57;;;;;;;;;;7351019;19;20077;-76
2022/12/13 22:33:58;;;;;;;27.38;12.52;;;;;;;;;;7344689;19;20018;-76
2022/12/13 22:36:38;;;;;;;38.55;14.75;;;;;;;;;;7370890;19;20235;-76
2022/12/13 22:39:08;;;;;;;28.20;13.48;;;;;;;;;;7345030;19;20037;-76
2022/12/13 22:41:38;;;;;;;36.58;14.93;;;;;;;;;;7373319;19;20022;-76
2022/12/13 22:44:08;;;;;;;30.25;13.30;;;;;;;;;;7367489;19;20029;-76
2022/12/13 22:46:39;;;;;;;27.25;14.38;;;;;;;;;;7372714;19;20022;-76
2022/12/13 22:49:11;;;;;;;20.83;11.38;;;;;;;;;;7369361;19;20489;-76
2022/12/13 22:51:46;;;;;;;32.90;13.18;;;;;;;;;;7375278;19;20389;-76
2022/12/13 22:54:16;;;;;;;22.33;11.25;;;;;;;;;;7369445;19;20017;-76
2022/12/13 22:56:46;;;;;;;27.85;13.75;;;;;;;;;;7367976;19;20006;-76
2022/12/13 22:59:15;;;;;;;28.92;13.32;;;;;;;;;;7348523;19;20010;-76
2022/12/13 23:01:47;;;;;;;32.63;14.77;;;;;;;;;;7367570;19;20002;-76
2022/12/13 23:04:18;;;;;;;29.02;13.02;;;;;;;;;;7366662;19;20030;-76
2022/12/13 23:06:51;;;;;;;32.10;14.27;;;;;;;;;;7361884;19;20002;-76
2022/12/13 23:09:21;;;;;;;25.20;12.38;;;;;;;;;;7368595;19;20011;-76
2022/12/13 23:14:34;;;;;;;28.92;12.80;;;;;;;;;;7374607;19;20082;-77
2022/12/13 23:17:04;;;;;;;21.50;10.75;;;;;;;;;;7366772;19;20015;-77
2022/12/13 23:19:36;;;;;;;21.77;12.95;;;;;;;;;;7372286;19;20082;-77
2022/12/13 23:22:23;;;;;;;27.13;11.68;;;;;;;;;;7370657;19;20015;-77
2022/12/13 23:24:58;;;;;;;31.40;13.73;;;;;;;;;;7361777;19;20027;-76
2022/12/13 23:27:28;;;;;;;28.98;13.23;;;;;;;;;;7373705;19;20027;-77
2022/12/13 23:29:58;;;;;;;26.20;11.63;;;;;;;;;;7367703;19;20020;-77
2022/12/13 23:32:27;;;;;;;30.98;13.43;;;;;;;;;;7374365;19;20017;-76
2022/12/13 23:34:58;;;;;;;29.50;13.32;;;;;;;;;;7367909;19;20010;-77
2022/12/13 23:37:33;;;;;;;27.73;10.50;;;;;;;;;;7364810;19;19999;-76
2022/12/13 23:40:09;;;;;;;32.85;13.30;;;;;;;;;;7346087;19;20020;-76
2022/12/13 23:42:40;;;;;;;29.15;13.13;;;;;;;;;;7348563;19;20106;-76
2022/12/13 23:45:11;;;;;;;25.08;12.02;;;;;;;;;;7366248;19;20011;-76
2022/12/13 23:47:42;;;;;;;25.20;11.90;;;;;;;;;;7371523;19;20014;-76
2022/12/13 23:50:16;;;;;;;25.40;12.85;;;;;;;;;;7365859;19;20331;-76
2022/12/13 23:52:49;;;;;;;27.05;12.27;;;;;;;;;;7364730;19;20026;-76
2022/12/13 23:55:19;;;;;;;28.70;11.88;;;;;;;;;;7368147;19;20003;-75
2022/12/13 23:57:49;;;;;;;25.95;10.52;;;;;;;;;;7318947;19;20081;-76
